createdAt,value
2023-04-17T00:00:27.054Z,16.98
2023-04-17T00:02:53.567Z,14.40
2023-04-17T00:05:23.298Z,17.23
2023-04-17T00:07:49.824Z,17.85
2023-04-17T00:10:16.586Z,20.00
2023-04-17T00:12:43.113Z,18.25
2023-04-17T00:15:09.673Z,15.93
2023-04-17T00:17:36.028Z,17.85
2023-04-17T00:20:03.847Z,14.90
2023-04-17T00:22:30.181Z,15.55
2023-04-17T00:24:56.631Z,15.30
2023-04-17T00:27:23.061Z,11.98
2023-04-17T00:29:49.456Z,14.82
2023-04-17T00:32:15.875Z,14.52
2023-04-17T00:34:42.267Z,15.27
2023-04-17T00:37:08.656Z,14.80
2023-04-17T00:39:35.029Z,14.90
2023-04-17T00:42:01.684Z,14.93
2023-04-17T00:44:27.996Z,13.10
2023-04-17T00:46:54.778Z,9.98
2023-04-17T00:49:21.993Z,14.30
2023-04-17T00:51:48.587Z,13.18
2023-04-17T00:54:15.487Z,14.05
2023-04-17T00:56:42.638Z,12.60
2023-04-17T00:59:10.855Z,11.13
2023-04-17T01:01:37.548Z,16.60
2023-04-17T01:04:05.466Z,16.60
2023-04-17T01:06:32.064Z,17.42
2023-04-17T01:08:58.611Z,15.50
2023-04-17T01:11:24.971Z,16.35
2023-04-17T01:13:51.456Z,16.42
2023-04-17T01:16:18.241Z,14.32
2023-04-17T01:18:44.676Z,16.88
2023-04-17T01:21:11.223Z,12.00
2023-04-17T01:23:45.468Z,17.35
2023-04-17T01:26:16.270Z,17.40
2023-04-17T01:28:42.651Z,14.93
2023-04-17T01:31:09.067Z,17.88
2023-04-17T01:33:35.450Z,16.25
2023-04-17T01:36:01.785Z,18.17
2023-04-17T01:38:28.265Z,12.82
2023-04-17T01:40:54.577Z,17.08
2023-04-17T01:43:20.901Z,14.88
2023-04-17T01:45:47.349Z,18.80
2023-04-17T01:48:13.673Z,15.40
2023-04-17T01:50:40.139Z,15.00
2023-04-17T01:53:06.510Z,12.82
2023-04-17T01:55:32.826Z,13.98
2023-04-17T01:57:59.251Z,13.02
2023-04-17T02:00:25.701Z,13.30
2023-04-17T02:02:52.255Z,11.73
2023-04-17T02:05:18.747Z,11.82
2023-04-17T02:07:45.244Z,11.68
2023-04-17T02:10:11.683Z,12.32
2023-04-17T02:12:38.002Z,8.73
2023-04-17T02:15:04.566Z,10.98
2023-04-17T02:17:31.040Z,11.38
2023-04-17T02:19:57.480Z,11.88
2023-04-17T02:22:23.952Z,10.23
2023-04-17T02:24:50.278Z,13.02
2023-04-17T02:27:17.410Z,10.77
2023-04-17T02:29:43.765Z,12.88
2023-04-17T02:32:10.121Z,11.63
2023-04-17T02:34:36.408Z,12.27
2023-04-17T02:37:02.815Z,14.85
2023-04-17T02:39:29.276Z,10.18
2023-04-17T02:41:55.753Z,13.13
2023-04-17T02:44:22.173Z,12.68
2023-04-17T02:46:48.588Z,8.02
2023-04-17T02:49:15.001Z,11.93
2023-04-17T02:51:41.326Z,11.80
2023-04-17T02:54:07.675Z,13.02
2023-04-17T02:56:33.991Z,11.38
2023-04-17T02:59:00.491Z,12.32
2023-04-17T03:01:27.892Z,12.85
2023-04-17T03:03:54.407Z,13.43
2023-04-17T03:06:21.759Z,12.55
2023-04-17T03:08:48.131Z,12.43
2023-04-17T03:11:14.499Z,11.35
2023-04-17T03:13:40.857Z,12.75
2023-04-17T03:16:07.333Z,12.48
2023-04-17T03:18:34.765Z,9.73
2023-04-17T03:21:01.169Z,11.20
2023-04-17T03:23:27.484Z,12.40
2023-04-17T03:25:53.859Z,12.38
2023-04-17T03:28:21.943Z,11.68
2023-04-17T03:30:49.449Z,12.18
2023-04-17T03:33:16.513Z,10.30
2023-04-17T03:35:43.051Z,8.82
2023-04-17T03:38:09.626Z,10.55
2023-04-17T03:40:36.113Z,10.63
2023-04-17T03:43:02.480Z,9.07
2023-04-17T03:45:28.800Z,11.73
2023-04-17T03:47:55.192Z,11.50
2023-04-17T03:50:21.568Z,10.27
2023-04-17T03:52:47.917Z,10.00
2023-04-17T03:55:14.440Z,6.88
2023-04-17T03:57:41.059Z,13.07
2023-04-17T04:00:10.453Z,11.90
2023-04-17T04:02:37.088Z,10.88
2023-04-17T04:05:03.872Z,9.00
2023-04-17T04:07:30.353Z,11.93
2023-04-17T04:09:56.893Z,9.10
2023-04-17T04:12:23.282Z,6.93
2023-04-17T04:14:49.588Z,11.35
2023-04-17T04:17:16.029Z,9.95
2023-04-17T04:19:43.546Z,9.15
2023-04-17T04:22:10.384Z,9.48
2023-04-17T04:24:36.719Z,10.02
2023-04-17T04:27:06.116Z,8.50
2023-04-17T04:29:32.789Z,8.75
2023-04-17T04:31:59.749Z,10.30
2023-04-17T04:34:29.766Z,11.32
2023-04-17T04:36:56.883Z,9.95
2023-04-17T04:39:23.311Z,9.30
2023-04-17T04:41:50.687Z,11.60
2023-04-17T04:44:17.562Z,7.68
2023-04-17T04:46:44.037Z,9.65
2023-04-17T04:49:10.915Z,9.70
2023-04-17T04:51:37.668Z,10.18
2023-04-17T04:54:04.356Z,8.88
2023-04-17T04:56:32.924Z,10.40
2023-04-17T04:58:59.440Z,9.32
2023-04-17T05:01:25.890Z,11.82
2023-04-17T05:03:52.505Z,9.95
2023-04-17T05:06:19.687Z,13.75
2023-04-17T05:08:46.186Z,12.30
2023-04-17T05:11:12.576Z,10.85
2023-04-17T05:13:38.916Z,12.15
2023-04-17T05:16:05.765Z,13.40
2023-04-17T05:18:32.163Z,11.10
2023-04-17T05:20:58.496Z,9.52
2023-04-17T05:23:24.845Z,13.65
2023-04-17T05:25:51.256Z,12.88
2023-04-17T05:28:17.634Z,9.82
2023-04-17T05:30:44.332Z,14.15
2023-04-17T05:33:10.754Z,13.75
2023-04-17T05:35:37.134Z,13.60
2023-04-17T05:38:04.729Z,14.02
2023-04-17T05:40:31.064Z,14.02
2023-04-17T05:42:57.444Z,13.70
2023-04-17T05:45:25.592Z,14.35
2023-04-17T05:47:52.216Z,9.10
2023-04-17T05:50:18.743Z,13.88
2023-04-17T05:52:47.618Z,13.40
2023-04-17T05:55:15.232Z,12.45
2023-04-17T05:57:41.635Z,11.57
2023-04-17T06:00:12.713Z,10.02
2023-04-17T06:02:40.949Z,14.38
2023-04-17T06:05:07.792Z,14.52
2023-04-17T06:07:34.573Z,10.93
2023-04-17T06:10:01.592Z,14.25
2023-04-17T06:12:27.938Z,12.05
2023-04-17T06:14:54.458Z,14.32
2023-04-17T06:17:21.168Z,13.45
2023-04-17T06:19:47.565Z,12.32
2023-04-17T06:22:13.986Z,11.88
2023-04-17T06:24:40.455Z,13.82
2023-04-17T06:27:06.791Z,12.38
2023-04-17T06:29:33.119Z,12.70
2023-04-17T06:31:59.619Z,14.98
2023-04-17T06:34:26.026Z,13.13
2023-04-17T06:36:53.424Z,13.10
2023-04-17T06:39:20.002Z,14.68
2023-04-17T06:41:46.345Z,14.63
2023-04-17T06:44:12.750Z,15.30
2023-04-17T06:46:39.094Z,14.45
2023-04-17T06:49:05.490Z,14.48
2023-04-17T06:51:31.905Z,14.30
2023-04-17T06:53:59.231Z,12.93
2023-04-17T06:56:25.824Z,11.32
2023-04-17T06:58:53.411Z,14.57
2023-04-17T07:01:20.782Z,13.73
2023-04-17T07:03:47.465Z,14.02
2023-04-17T07:06:14.056Z,11.77
2023-04-17T07:08:40.539Z,15.40
2023-04-17T07:11:06.896Z,13.07
2023-04-17T07:13:33.354Z,14.82
2023-04-17T07:16:01.323Z,12.77
2023-04-17T07:18:29.485Z,13.23
2023-04-17T07:20:56.638Z,14.90
2023-04-17T07:23:23.104Z,14.93
2023-04-17T07:25:49.404Z,14.13
2023-04-17T07:28:15.819Z,13.43
2023-04-17T07:30:42.681Z,13.05
2023-04-17T07:33:09.310Z,15.40
2023-04-17T07:35:35.858Z,13.93
2023-04-17T07:38:03.939Z,13.90
2023-04-17T07:40:30.904Z,14.63
2023-04-17T07:42:57.612Z,13.10
2023-04-17T07:45:24.006Z,12.63
2023-04-17T07:47:53.532Z,14.43
2023-04-17T07:50:20.345Z,15.10
2023-04-17T07:52:46.917Z,14.77
2023-04-17T07:55:13.413Z,15.10
2023-04-17T07:57:43.273Z,13.35
2023-04-17T08:00:10.747Z,15.10
2023-04-17T08:02:37.242Z,15.48
2023-04-17T08:05:05.726Z,13.73
2023-04-17T08:07:32.220Z,8.27
2023-04-17T08:09:58.688Z,15.77
2023-04-17T08:12:25.132Z,16.38
2023-04-17T08:14:51.630Z,16.33
2023-04-17T08:17:22.721Z,18.13
2023-04-17T08:19:53.744Z,13.23
2023-04-17T08:22:24.161Z,15.70
2023-04-17T08:24:50.908Z,17.30
2023-04-17T08:27:17.298Z,16.27
2023-04-17T08:29:43.622Z,16.27
2023-04-17T08:32:14.508Z,16.50
2023-04-17T08:34:42.134Z,15.75
2023-04-17T08:37:08.452Z,14.65
2023-04-17T08:39:34.920Z,14.95
2023-04-17T08:42:05.381Z,18.55
2023-04-17T08:44:31.757Z,16.67
2023-04-17T08:46:58.432Z,13.77
2023-04-17T08:49:25.327Z,17.23
2023-04-17T08:51:51.631Z,13.38
2023-04-17T08:54:19.444Z,17.25
2023-04-17T08:56:46.494Z,14.50
2023-04-17T08:59:13.062Z,16.88
2023-04-17T09:01:39.556Z,16.02
2023-04-17T09:04:06.199Z,17.85
2023-04-17T09:06:54.384Z,21.45
2023-04-17T09:09:20.950Z,19.10
2023-04-17T09:12:07.255Z,18.65
2023-04-17T09:17:00.957Z,16.75
2023-04-17T09:19:27.324Z,16.40
2023-04-17T09:21:54.267Z,16.83
2023-04-17T09:24:37.573Z,16.80
2023-04-17T09:27:19.397Z,17.30
2023-04-17T09:30:02.631Z,13.32
2023-04-17T09:32:29.810Z,17.10
2023-04-17T09:34:57.663Z,15.20
2023-04-17T09:37:24.521Z,18.10
2023-04-17T09:39:57.796Z,15.30
2023-04-17T09:42:24.546Z,17.30
2023-04-17T09:44:50.948Z,17.23
2023-04-17T09:47:20.018Z,16.15
2023-04-17T09:49:52.503Z,15.20
2023-04-17T09:52:19.851Z,14.60
2023-04-17T09:54:47.404Z,15.45
2023-04-17T09:57:13.826Z,13.73
2023-04-17T09:59:50.521Z,16.73
2023-04-17T10:02:18.080Z,15.55
2023-04-17T10:04:45.487Z,15.02
2023-04-17T10:07:13.138Z,14.77
2023-04-17T10:09:41.425Z,11.55
2023-04-17T10:12:11.599Z,13.77
2023-04-17T10:14:39.501Z,14.20
2023-04-17T10:17:38.570Z,14.43
2023-04-17T10:20:20.144Z,14.07
2023-04-17T10:22:49.251Z,13.48
2023-04-17T10:25:15.649Z,14.63
2023-04-17T10:27:42.000Z,13.10
2023-04-17T10:30:10.426Z,14.30
2023-04-17T10:32:36.872Z,15.30
2023-04-17T10:35:23.245Z,16.80
2023-04-17T10:37:52.413Z,18.38
2023-04-17T10:40:22.665Z,14.98
2023-04-17T10:43:02.177Z,17.25
2023-04-17T10:45:48.573Z,13.07
2023-04-17T10:48:28.706Z,14.57
2023-04-17T10:50:56.107Z,16.98
2023-04-17T10:53:38.233Z,16.83
2023-04-17T10:56:04.917Z,13.27
2023-04-17T10:58:32.137Z,16.23
2023-04-17T11:01:02.547Z,16.13
2023-04-17T11:03:30.016Z,14.60
2023-04-17T11:05:58.817Z,13.23
2023-04-17T11:08:25.254Z,14.90
2023-04-17T11:10:57.715Z,13.73
2023-04-17T11:13:24.094Z,13.82
2023-04-17T11:15:50.856Z,14.88
2023-04-17T11:18:17.299Z,16.98
2023-04-17T11:20:43.786Z,10.88
2023-04-17T11:23:10.336Z,12.88
2023-04-17T11:25:37.840Z,13.48
2023-04-17T11:28:05.845Z,13.43
2023-04-17T11:30:44.514Z,13.75
2023-04-17T11:33:12.323Z,13.25
2023-04-17T11:35:40.046Z,13.55
2023-04-17T11:38:06.628Z,13.57
2023-04-17T11:40:33.720Z,12.95
2023-04-17T11:43:05.913Z,12.50
2023-04-17T11:45:33.218Z,10.63
2023-04-17T11:47:59.753Z,13.45
2023-04-17T11:50:32.784Z,13.07
2023-04-17T11:53:03.099Z,14.02
2023-04-17T11:55:35.202Z,12.18
2023-04-17T11:58:04.034Z,14.13
2023-04-17T12:00:30.560Z,13.32
2023-04-17T12:02:57.983Z,12.10
2023-04-17T12:05:25.880Z,11.70
2023-04-17T12:08:05.908Z,12.18
2023-04-17T12:10:38.526Z,12.05
2023-04-17T12:13:04.983Z,10.68
2023-04-17T12:15:31.359Z,11.27
2023-04-17T12:17:57.693Z,10.88
2023-04-17T12:20:26.592Z,13.55
2023-04-17T12:22:53.176Z,13.50
2023-04-17T12:25:19.566Z,12.40
2023-04-17T12:27:48.011Z,11.90
2023-04-17T12:30:15.964Z,11.60
2023-04-17T12:32:45.861Z,11.45
2023-04-17T12:35:12.259Z,10.93
2023-04-17T12:37:38.666Z,12.05
2023-04-17T12:40:05.965Z,11.20
2023-04-17T12:42:36.401Z,10.85
2023-04-17T12:45:13.282Z,11.27
2023-04-17T12:47:39.720Z,12.18
2023-04-17T12:50:06.919Z,11.00
2023-04-17T12:52:33.345Z,12.48
2023-04-17T12:55:00.132Z,12.75
2023-04-17T12:57:27.084Z,11.45
2023-04-17T12:59:53.698Z,10.85
2023-04-17T13:02:21.155Z,12.02
2023-04-17T13:04:47.759Z,11.20
2023-04-17T13:07:14.220Z,9.65
2023-04-17T13:09:40.550Z,10.68
2023-04-17T13:12:06.987Z,11.25
2023-04-17T13:14:33.320Z,11.23
2023-04-17T13:16:59.749Z,10.48
2023-04-17T13:19:26.297Z,10.13
2023-04-17T13:21:52.647Z,9.88
2023-04-17T13:24:19.083Z,10.35
2023-04-17T13:26:45.420Z,11.18
2023-04-17T13:29:12.014Z,12.07
2023-04-17T13:31:38.519Z,11.68
2023-04-17T13:34:06.595Z,12.45
2023-04-17T13:36:33.913Z,11.13
2023-04-17T13:39:00.365Z,11.30
2023-04-17T13:41:26.826Z,11.20
2023-04-17T13:43:55.154Z,12.27
2023-04-17T13:46:21.691Z,9.73
2023-04-17T13:48:48.338Z,10.68
2023-04-17T13:51:14.773Z,10.15
2023-04-17T13:53:41.107Z,9.73
2023-04-17T13:56:07.584Z,11.43
2023-04-17T13:58:34.379Z,11.30
2023-04-17T14:01:00.823Z,8.77
2023-04-17T14:03:27.583Z,9.90
2023-04-17T14:05:54.079Z,11.63
2023-04-17T14:08:20.696Z,9.90
2023-04-17T14:10:47.184Z,10.38
2023-04-17T14:13:13.541Z,9.30
2023-04-17T14:15:40.313Z,10.35
2023-04-17T14:18:06.992Z,10.73
2023-04-17T14:20:33.436Z,10.40
2023-04-17T14:22:59.780Z,10.57
2023-04-17T14:25:26.342Z,10.75
2023-04-17T14:27:52.760Z,9.63
2023-04-17T14:30:19.188Z,9.90
2023-04-17T14:32:45.645Z,10.25
2023-04-17T14:35:13.263Z,7.97
2023-04-17T14:37:39.699Z,11.05
2023-04-17T14:40:06.656Z,9.25
2023-04-17T14:42:40.729Z,10.20
2023-04-17T14:45:17.399Z,10.48
2023-04-17T14:47:44.191Z,9.02
2023-04-17T14:50:10.600Z,9.50
2023-04-17T14:52:36.979Z,9.30
2023-04-17T14:55:03.479Z,9.35
2023-04-17T14:57:30.008Z,9.95
2023-04-17T14:59:56.375Z,10.50
2023-04-17T15:02:22.932Z,9.35
2023-04-17T15:04:50.596Z,10.80
2023-04-17T15:07:16.982Z,9.00
2023-04-17T15:09:43.359Z,9.82
2023-04-17T15:12:09.728Z,8.98
2023-04-17T15:14:36.125Z,9.73
2023-04-17T15:17:03.265Z,8.70
2023-04-17T15:19:29.717Z,8.63
2023-04-17T15:21:56.053Z,8.13
2023-04-17T15:24:22.359Z,9.55
2023-04-17T15:26:49.611Z,7.35
2023-04-17T15:29:16.110Z,9.60
2023-04-17T15:31:42.467Z,8.32
2023-04-17T15:34:08.869Z,8.02
2023-04-17T15:36:35.361Z,9.13
2023-04-17T15:39:01.781Z,9.23
2023-04-17T15:41:28.213Z,8.38
2023-04-17T15:43:54.559Z,9.23
2023-04-17T15:46:21.213Z,8.95
2023-04-17T15:48:57.712Z,8.80
2023-04-17T15:51:31.600Z,8.48
2023-04-17T15:53:57.922Z,8.60
2023-04-17T15:56:24.390Z,9.10
2023-04-17T15:58:50.767Z,9.65
2023-04-17T16:01:17.309Z,10.10
2023-04-17T16:03:43.848Z,8.52
2023-04-17T16:06:11.309Z,10.25
2023-04-17T16:08:37.982Z,11.73
2023-04-17T16:11:04.535Z,13.82
2023-04-17T16:13:30.929Z,12.27
2023-04-17T16:15:57.499Z,12.75
2023-04-17T16:18:23.897Z,11.57
2023-04-17T16:20:50.214Z,11.77
2023-04-17T16:23:16.586Z,12.43
2023-04-17T16:25:42.948Z,12.13
2023-04-17T16:28:09.238Z,12.27
2023-04-17T16:30:35.548Z,13.15
2023-04-17T16:33:02.689Z,12.95
2023-04-17T16:35:30.041Z,11.10
2023-04-17T16:37:56.435Z,11.57
2023-04-17T16:40:22.840Z,11.00
2023-04-17T16:42:49.144Z,10.77
2023-04-17T16:45:15.667Z,12.18
2023-04-17T16:47:42.180Z,11.38
2023-04-17T16:50:11.489Z,12.68
2023-04-17T16:52:38.777Z,12.70
2023-04-17T16:55:05.296Z,12.20
2023-04-17T16:57:32.034Z,11.07
2023-04-17T16:59:58.387Z,12.98
2023-04-17T17:02:24.800Z,11.65
2023-04-17T17:04:51.265Z,11.50
2023-04-17T17:07:17.739Z,11.95
2023-04-17T17:09:44.163Z,12.32
2023-04-17T17:12:11.276Z,13.13
2023-04-17T17:14:37.715Z,13.18
2023-04-17T17:17:04.011Z,12.98
2023-04-17T17:19:30.431Z,11.68
2023-04-17T17:21:56.922Z,10.57
2023-04-17T17:24:23.626Z,13.80
2023-04-17T17:26:50.009Z,13.70
2023-04-17T17:29:16.490Z,13.30
2023-04-17T17:31:43.586Z,13.82
2023-04-17T17:34:25.034Z,14.10
2023-04-17T17:36:52.851Z,14.55
2023-04-17T17:39:21.097Z,15.75
2023-04-17T17:41:47.840Z,15.35
2023-04-17T17:44:14.902Z,14.70
2023-04-17T17:46:41.609Z,15.93
2023-04-17T17:49:08.187Z,15.27
2023-04-17T17:51:34.573Z,16.08
2023-04-17T17:54:01.015Z,15.05
2023-04-17T17:56:28.292Z,12.23
2023-04-17T17:58:54.630Z,12.32
2023-04-17T18:01:23.370Z,15.20
2023-04-17T18:03:50.224Z,14.32
2023-04-17T18:06:16.813Z,14.65
2023-04-17T18:08:43.169Z,12.55
2023-04-17T18:11:09.543Z,11.38
2023-04-17T18:13:35.961Z,14.93
2023-04-17T18:16:05.691Z,14.40
2023-04-17T18:18:32.038Z,14.45
2023-04-17T18:20:58.406Z,14.77
2023-04-17T18:23:24.815Z,12.63
2023-04-17T18:25:58.656Z,14.32
2023-04-17T18:28:25.412Z,14.25
2023-04-17T18:30:51.833Z,13.27
2023-04-17T18:33:18.321Z,13.95
2023-04-17T18:35:44.652Z,14.02
2023-04-17T18:38:10.999Z,13.20
2023-04-17T18:40:37.690Z,12.73
2023-04-17T18:43:05.743Z,11.45
2023-04-17T18:45:32.457Z,13.63
2023-04-17T18:47:58.902Z,13.95
2023-04-17T18:50:26.825Z,15.43
2023-04-17T18:52:53.296Z,15.88
2023-04-17T18:55:19.745Z,11.90
2023-04-17T18:57:46.143Z,14.70
2023-04-17T19:00:12.791Z,15.35
2023-04-17T19:02:40.697Z,14.85
2023-04-17T19:05:07.440Z,16.38
2023-04-17T19:07:33.873Z,13.85
2023-04-17T19:10:00.417Z,15.02
2023-04-17T19:12:26.778Z,15.10
2023-04-17T19:14:53.139Z,15.73
2023-04-17T19:17:19.488Z,15.32
2023-04-17T19:19:45.939Z,12.77
2023-04-17T19:22:14.077Z,16.15
2023-04-17T19:24:41.845Z,15.25
2023-04-17T19:27:08.213Z,15.60
2023-04-17T19:29:34.534Z,15.25
2023-04-17T19:32:01.011Z,13.73
2023-04-17T19:34:27.499Z,13.95
2023-04-17T19:36:53.919Z,13.35
2023-04-17T19:39:20.491Z,13.82
2023-04-17T19:41:50.775Z,14.88
2023-04-17T19:44:17.348Z,15.00
2023-04-17T19:46:43.713Z,16.88
2023-04-17T19:49:11.900Z,16.15
2023-04-17T19:51:38.855Z,13.38
2023-04-17T19:54:05.501Z,11.27
2023-04-17T19:56:31.958Z,14.57
2023-04-17T19:59:02.610Z,15.23
2023-04-17T20:01:30.176Z,15.02
2023-04-17T20:03:57.020Z,15.38
2023-04-17T20:06:23.602Z,15.50
2023-04-17T20:08:50.200Z,14.43
2023-04-17T20:11:16.749Z,14.07
2023-04-17T20:13:43.164Z,15.40
2023-04-17T20:16:09.460Z,15.77
2023-04-17T20:18:37.307Z,14.88
2023-04-17T20:21:06.363Z,13.90
2023-04-17T20:23:33.071Z,12.85
2023-04-17T20:25:59.457Z,14.88
2023-04-17T20:28:28.677Z,11.07
2023-04-17T20:30:55.542Z,12.82
2023-04-17T20:33:21.959Z,12.38
2023-04-17T20:35:48.380Z,12.63
2023-04-17T20:38:14.771Z,10.93
2023-04-17T20:40:41.151Z,13.85
2023-04-17T20:43:07.545Z,11.40
2023-04-17T20:45:33.880Z,13.55
2023-04-17T20:48:00.338Z,10.50
2023-04-17T20:50:26.771Z,8.32
2023-04-17T20:52:53.133Z,12.18
2023-04-17T20:55:19.969Z,11.30
2023-04-17T20:57:46.781Z,12.32
2023-04-17T21:00:13.410Z,11.70
2023-04-17T21:02:39.951Z,10.23
2023-04-17T21:05:07.245Z,9.70
2023-04-17T21:07:33.675Z,10.77
2023-04-17T21:10:00.168Z,9.88
2023-04-17T21:12:26.560Z,10.05
2023-04-17T21:14:52.931Z,9.68
2023-04-17T21:17:19.344Z,6.97
2023-04-17T21:19:46.163Z,9.98
2023-04-17T21:22:13.064Z,10.68
2023-04-17T21:24:39.771Z,9.80
2023-04-17T21:27:06.191Z,9.35
2023-04-17T21:29:32.601Z,9.00
2023-04-17T21:31:59.141Z,9.82
2023-04-17T21:34:25.713Z,9.02
2023-04-17T21:36:55.218Z,7.97
2023-04-17T21:39:22.080Z,9.27
2023-04-17T21:41:48.636Z,9.68
2023-04-17T21:44:15.457Z,10.57
2023-04-17T21:46:43.535Z,9.38
2023-04-17T21:49:09.906Z,8.70
2023-04-17T21:51:36.224Z,10.10
2023-04-17T21:54:02.615Z,8.10
2023-04-17T21:56:28.920Z,10.27
2023-04-17T21:58:55.800Z,8.07
2023-04-17T22:01:22.286Z,8.40
2023-04-17T22:03:48.741Z,10.05
2023-04-17T22:06:15.069Z,9.00
2023-04-17T22:08:41.970Z,7.85
2023-04-17T22:11:08.401Z,10.02
2023-04-17T22:13:35.013Z,8.15
2023-04-17T22:16:02.332Z,9.02
2023-04-17T22:18:28.688Z,9.43
2023-04-17T22:20:55.036Z,8.73
2023-04-17T22:23:58.894Z,5.68
2023-04-17T22:26:26.883Z,6.75
2023-04-17T22:29:11.820Z,8.50
2023-04-17T22:31:56.910Z,9.15
2023-04-17T22:34:42.547Z,9.50
2023-04-17T22:37:27.585Z,8.18
2023-04-17T22:40:12.603Z,10.30
2023-04-17T22:42:57.803Z,8.95
2023-04-17T22:45:24.133Z,9.40
2023-04-17T22:47:50.501Z,9.55
2023-04-17T22:50:17.732Z,6.88
2023-04-17T22:52:44.208Z,9.40
2023-04-17T22:55:11.134Z,9.98
2023-04-17T22:57:37.535Z,8.80
2023-04-17T23:00:04.248Z,9.10
2023-04-17T23:02:30.967Z,7.10
2023-04-17T23:04:57.459Z,8.95
2023-04-17T23:07:23.811Z,8.63
2023-04-17T23:09:50.361Z,7.18
2023-04-17T23:12:16.787Z,7.63
2023-04-17T23:14:44.255Z,9.68
2023-04-17T23:17:10.665Z,9.15
2023-04-17T23:19:36.978Z,6.28
2023-04-17T23:22:03.530Z,9.45
2023-04-17T23:24:32.242Z,6.13
2023-04-17T23:26:58.567Z,7.93
2023-04-17T23:29:24.900Z,7.88
2023-04-17T23:31:51.408Z,9.48
2023-04-17T23:34:17.930Z,9.80
2023-04-17T23:36:44.445Z,8.38
2023-04-17T23:39:10.862Z,8.55
2023-04-17T23:41:37.207Z,9.45
2023-04-17T23:44:03.939Z,7.40
2023-04-17T23:46:30.894Z,9.95
2023-04-17T23:48:57.299Z,9.35
2023-04-17T23:51:23.685Z,10.07
2023-04-17T23:53:50.699Z,9.23
2023-04-17T23:56:18.071Z,9.50
2023-04-17T23:58:44.407Z,9.88
